sensor_id;sensor_type;location;lat;lon;timestamp;P1;durP1;ratioP1;P2;durP2;ratioP2
2618;SDS011;1319;52.346;13.096;2023-11-21T00:00:42;15.30;;;5.60;;
2618;SDS011;1319;52.346;13.096;2023-11-21T00:03:07;16.77;;;5.93;;
2618;SDS011;1319;52.346;13.096;2023-11-21T00:05:32;17.80;;;5.93;;
2618;SDS011;1319;52.346;13.096;2023-11-21T00:07:57;12.03;;;5.70;;
2618;SDS011;1319;52.346;13.096;2023-11-21T00:10:22;12.47;;;5.30;;
2618;SDS011;1319;52.346;13.096;2023-11-21T00:12:48;12.10;;;5.60;;
2618;SDS011;1319;52.346;13.096;2023-11-21T00:15:13;7.63;;;4.40;;
2618;SDS011;1319;52.346;13.096;2023-11-21T00:17:38;8.43;;;4.50;;
2618;SDS011;1319;52.346;13.096;2023-11-21T00:20:05;7.77;;;4.40;;
2618;SDS011;1319;52.346;13.096;2023-11-21T00:22:32;8.27;;;4.10;;
2618;SDS011;1319;52.346;13.096;2023-11-21T00:24:57;11.03;;;3.50;;
2618;SDS011;1319;52.346;13.096;2023-11-21T00:27:23;3.47;;;3.17;;
2618;SDS011;1319;52.346;13.096;2023-11-21T00:29:48;3.07;;;2.80;;
2618;SDS011;1319;52.346;13.096;2023-11-21T00:32:13;3.90;;;3.10;;
2618;SDS011;1319;52.346;13.096;2023-11-21T00:34:38;3.83;;;2.50;;
2618;SDS011;1319;52.346;13.096;2023-11-21T00:37:03;3.63;;;2.00;;
2618;SDS011;1319;52.346;13.096;2023-11-21T00:39:29;3.40;;;2.17;;
2618;SDS011;1319;52.346;13.096;2023-11-21T00:41:54;2.33;;;1.90;;
2618;SDS011;1319;52.346;13.096;2023-11-21T00:44:19;2.00;;;1.73;;
2618;SDS011;1319;52.346;13.096;2023-11-21T00:46:44;2.63;;;1.90;;
2618;SDS011;1319;52.346;13.096;2023-11-21T00:49:10;2.10;;;1.90;;
2618;SDS011;1319;52.346;13.096;2023-11-21T00:51:35;2.47;;;1.83;;
2618;SDS011;1319;52.346;13.096;2023-11-21T00:54:01;1.40;;;1.40;;
2618;SDS011;1319;52.346;13.096;2023-11-21T00:56:26;2.73;;;1.40;;
2618;SDS011;1319;52.346;13.096;2023-11-21T00:58:51;7.30;;;1.90;;
2618;SDS011;1319;52.346;13.096;2023-11-21T01:01:18;2.93;;;2.00;;
2618;SDS011;1319;52.346;13.096;2023-11-21T01:03:43;4.47;;;3.20;;
2618;SDS011;1319;52.346;13.096;2023-11-21T01:06:08;3.20;;;2.90;;
2618;SDS011;1319;52.346;13.096;2023-11-21T01:08:34;4.57;;;3.77;;
2618;SDS011;1319;52.346;13.096;2023-11-21T01:10:59;8.10;;;4.40;;
2618;SDS011;1319;52.346;13.096;2023-11-21T01:13:24;8.77;;;5.13;;
2618;SDS011;1319;52.346;13.096;2023-11-21T01:15:54;8.90;;;5.57;;
2618;SDS011;1319;52.346;13.096;2023-11-21T01:18:19;11.37;;;5.23;;
2618;SDS011;1319;52.346;13.096;2023-11-21T01:20:45;9.07;;;5.83;;
2618;SDS011;1319;52.346;13.096;2023-11-21T01:23:12;12.73;;;6.17;;
2618;SDS011;1319;52.346;13.096;2023-11-21T01:25:37;12.30;;;6.77;;
2618;SDS011;1319;52.346;13.096;2023-11-21T01:28:02;17.53;;;9.73;;
2618;SDS011;1319;52.346;13.096;2023-11-21T01:30:27;16.60;;;9.93;;
2618;SDS011;1319;52.346;13.096;2023-11-21T01:32:52;22.50;;;11.10;;
2618;SDS011;1319;52.346;13.096;2023-11-21T01:35:18;22.33;;;11.53;;
2618;SDS011;1319;52.346;13.096;2023-11-21T01:37:43;23.20;;;11.87;;
2618;SDS011;1319;52.346;13.096;2023-11-21T01:40:08;25.93;;;12.43;;
2618;SDS011;1319;52.346;13.096;2023-11-21T01:42:38;27.40;;;12.63;;
2618;SDS011;1319;52.346;13.096;2023-11-21T01:45:03;28.53;;;12.10;;
2618;SDS011;1319;52.346;13.096;2023-11-21T01:47:30;27.07;;;12.63;;
2618;SDS011;1319;52.346;13.096;2023-11-21T01:49:56;29.43;;;14.37;;
2618;SDS011;1319;52.346;13.096;2023-11-21T01:52:21;32.67;;;12.83;;
2618;SDS011;1319;52.346;13.096;2023-11-21T01:54:46;34.27;;;14.23;;
2618;SDS011;1319;52.346;13.096;2023-11-21T01:57:12;39.63;;;13.87;;
2618;SDS011;1319;52.346;13.096;2023-11-21T01:59:38;40.53;;;13.50;;
2618;SDS011;1319;52.346;13.096;2023-11-21T02:02:07;41.50;;;14.27;;
2618;SDS011;1319;52.346;13.096;2023-11-21T02:04:32;36.33;;;13.23;;
2618;SDS011;1319;52.346;13.096;2023-11-21T02:06:58;34.27;;;13.23;;
2618;SDS011;1319;52.346;13.096;2023-11-21T02:09:26;33.97;;;13.13;;
2618;SDS011;1319;52.346;13.096;2023-11-21T02:11:52;33.50;;;13.03;;
2618;SDS011;1319;52.346;13.096;2023-11-21T02:14:19;28.50;;;12.17;;
2618;SDS011;1319;52.346;13.096;2023-11-21T02:16:45;29.47;;;12.93;;
2618;SDS011;1319;52.346;13.096;2023-11-21T02:19:12;25.77;;;12.13;;
2618;SDS011;1319;52.346;13.096;2023-11-21T02:21:40;32.17;;;12.20;;
2618;SDS011;1319;52.346;13.096;2023-11-21T02:24:06;31.17;;;12.40;;
2618;SDS011;1319;52.346;13.096;2023-11-21T02:26:31;28.07;;;11.97;;
2618;SDS011;1319;52.346;13.096;2023-11-21T02:28:56;34.23;;;12.10;;
2618;SDS011;1319;52.346;13.096;2023-11-21T02:31:23;29.03;;;11.80;;
2618;SDS011;1319;52.346;13.096;2023-11-21T02:33:48;27.00;;;11.33;;
2618;SDS011;1319;52.346;13.096;2023-11-21T02:36:13;28.70;;;11.50;;
2618;SDS011;1319;52.346;13.096;2023-11-21T02:38:39;30.40;;;12.40;;
2618;SDS011;1319;52.346;13.096;2023-11-21T02:41:04;23.33;;;10.53;;
2618;SDS011;1319;52.346;13.096;2023-11-21T02:43:29;25.50;;;9.83;;
2618;SDS011;1319;52.346;13.096;2023-11-21T02:45:54;25.63;;;10.97;;
2618;SDS011;1319;52.346;13.096;2023-11-21T02:48:20;24.67;;;10.30;;
2618;SDS011;1319;52.346;13.096;2023-11-21T02:50:45;25.20;;;10.10;;
2618;SDS011;1319;52.346;13.096;2023-11-21T02:53:10;25.27;;;10.40;;
2618;SDS011;1319;52.346;13.096;2023-11-21T02:55:36;22.33;;;9.20;;
2618;SDS011;1319;52.346;13.096;2023-11-21T02:58:01;25.53;;;9.80;;
2618;SDS011;1319;52.346;13.096;2023-11-21T03:00:26;18.77;;;9.23;;
2618;SDS011;1319;52.346;13.096;2023-11-21T03:02:52;21.07;;;9.40;;
2618;SDS011;1319;52.346;13.096;2023-11-21T03:05:18;21.00;;;9.47;;
2618;SDS011;1319;52.346;13.096;2023-11-21T03:07:43;19.43;;;9.13;;
2618;SDS011;1319;52.346;13.096;2023-11-21T03:10:08;20.20;;;9.30;;
2618;SDS011;1319;52.346;13.096;2023-11-21T03:12:34;21.67;;;9.20;;
2618;SDS011;1319;52.346;13.096;2023-11-21T03:14:59;28.40;;;10.00;;
2618;SDS011;1319;52.346;13.096;2023-11-21T03:17:24;23.37;;;9.00;;
2618;SDS011;1319;52.346;13.096;2023-11-21T03:19:50;20.67;;;9.70;;
2618;SDS011;1319;52.346;13.096;2023-11-21T03:22:15;23.73;;;9.63;;
2618;SDS011;1319;52.346;13.096;2023-11-21T03:24:40;24.77;;;9.37;;
2618;SDS011;1319;52.346;13.096;2023-11-21T03:27:05;23.57;;;10.00;;
2618;SDS011;1319;52.346;13.096;2023-11-21T03:29:30;22.53;;;9.60;;
2618;SDS011;1319;52.346;13.096;2023-11-21T03:31:56;20.33;;;8.90;;
2618;SDS011;1319;52.346;13.096;2023-11-21T03:34:25;14.70;;;8.10;;
2618;SDS011;1319;52.346;13.096;2023-11-21T03:36:53;17.50;;;7.93;;
2618;SDS011;1319;52.346;13.096;2023-11-21T03:39:19;17.70;;;8.50;;
2618;SDS011;1319;52.346;13.096;2023-11-21T03:41:44;17.97;;;8.50;;
2618;SDS011;1319;52.346;13.096;2023-11-21T03:44:10;15.03;;;9.27;;
2618;SDS011;1319;52.346;13.096;2023-11-21T03:46:35;15.43;;;9.33;;
2618;SDS011;1319;52.346;13.096;2023-11-21T03:49:00;17.07;;;9.43;;
2618;SDS011;1319;52.346;13.096;2023-11-21T03:51:26;17.13;;;9.37;;
2618;SDS011;1319;52.346;13.096;2023-11-21T03:53:51;15.80;;;9.03;;
2618;SDS011;1319;52.346;13.096;2023-11-21T03:56:16;17.83;;;10.27;;
2618;SDS011;1319;52.346;13.096;2023-11-21T03:58:41;17.13;;;10.50;;
2618;SDS011;1319;52.346;13.096;2023-11-21T04:01:07;17.07;;;10.30;;
2618;SDS011;1319;52.346;13.096;2023-11-21T04:03:32;19.23;;;9.87;;
2618;SDS011;1319;52.346;13.096;2023-11-21T04:05:57;16.03;;;9.97;;
2618;SDS011;1319;52.346;13.096;2023-11-21T04:08:22;19.63;;;10.90;;
2618;SDS011;1319;52.346;13.096;2023-11-21T04:10:48;20.07;;;11.07;;
2618;SDS011;1319;52.346;13.096;2023-11-21T04:13:13;17.53;;;10.70;;
2618;SDS011;1319;52.346;13.096;2023-11-21T04:15:39;19.80;;;12.50;;
2618;SDS011;1319;52.346;13.096;2023-11-21T04:18:04;19.67;;;11.50;;
2618;SDS011;1319;52.346;13.096;2023-11-21T04:20:29;19.40;;;11.90;;
2618;SDS011;1319;52.346;13.096;2023-11-21T04:22:54;19.57;;;12.33;;
2618;SDS011;1319;52.346;13.096;2023-11-21T04:25:20;20.03;;;11.77;;
2618;SDS011;1319;52.346;13.096;2023-11-21T04:27:45;18.73;;;11.53;;
2618;SDS011;1319;52.346;13.096;2023-11-21T04:30:13;18.90;;;11.43;;
2618;SDS011;1319;52.346;13.096;2023-11-21T04:32:39;20.20;;;12.23;;
2618;SDS011;1319;52.346;13.096;2023-11-21T04:35:04;20.57;;;11.77;;
2618;SDS011;1319;52.346;13.096;2023-11-21T04:37:29;20.93;;;12.43;;
2618;SDS011;1319;52.346;13.096;2023-11-21T04:39:55;17.93;;;11.53;;
2618;SDS011;1319;52.346;13.096;2023-11-21T04:42:20;21.57;;;10.87;;
2618;SDS011;1319;52.346;13.096;2023-11-21T04:44:45;23.37;;;12.17;;
2618;SDS011;1319;52.346;13.096;2023-11-21T04:47:10;22.50;;;12.40;;
2618;SDS011;1319;52.346;13.096;2023-11-21T04:49:36;21.40;;;12.73;;
2618;SDS011;1319;52.346;13.096;2023-11-21T04:52:01;21.43;;;11.90;;
2618;SDS011;1319;52.346;13.096;2023-11-21T04:54:27;22.70;;;12.97;;
2618;SDS011;1319;52.346;13.096;2023-11-21T04:56:52;20.90;;;11.90;;
2618;SDS011;1319;52.346;13.096;2023-11-21T04:59:17;23.77;;;11.83;;
2618;SDS011;1319;52.346;13.096;2023-11-21T05:01:43;19.57;;;11.80;;
2618;SDS011;1319;52.346;13.096;2023-11-21T05:04:08;21.00;;;11.80;;
2618;SDS011;1319;52.346;13.096;2023-11-21T05:06:34;26.33;;;11.97;;
2618;SDS011;1319;52.346;13.096;2023-11-21T05:08:59;18.43;;;11.17;;
2618;SDS011;1319;52.346;13.096;2023-11-21T05:11:28;19.53;;;11.50;;
2618;SDS011;1319;52.346;13.096;2023-11-21T05:13:54;18.97;;;10.53;;
2618;SDS011;1319;52.346;13.096;2023-11-21T05:16:21;16.37;;;9.83;;
2618;SDS011;1319;52.346;13.096;2023-11-21T05:18:46;19.10;;;9.83;;
2618;SDS011;1319;52.346;13.096;2023-11-21T05:21:12;18.50;;;10.00;;
2618;SDS011;1319;52.346;13.096;2023-11-21T05:23:37;17.80;;;10.13;;
2618;SDS011;1319;52.346;13.096;2023-11-21T05:26:02;18.93;;;10.30;;
2618;SDS011;1319;52.346;13.096;2023-11-21T05:28:28;20.10;;;10.53;;
2618;SDS011;1319;52.346;13.096;2023-11-21T05:30:53;20.97;;;10.53;;
2618;SDS011;1319;52.346;13.096;2023-11-21T05:33:18;21.00;;;10.70;;
2618;SDS011;1319;52.346;13.096;2023-11-21T05:35:43;21.13;;;11.73;;
2618;SDS011;1319;52.346;13.096;2023-11-21T05:38:09;20.33;;;11.07;;
2618;SDS011;1319;52.346;13.096;2023-11-21T05:40:34;20.37;;;10.53;;
2618;SDS011;1319;52.346;13.096;2023-11-21T05:42:59;20.67;;;11.20;;
2618;SDS011;1319;52.346;13.096;2023-11-21T05:45:25;20.53;;;11.10;;
2618;SDS011;1319;52.346;13.096;2023-11-21T05:47:50;20.67;;;11.30;;
2618;SDS011;1319;52.346;13.096;2023-11-21T05:50:16;20.77;;;11.70;;
2618;SDS011;1319;52.346;13.096;2023-11-21T05:52:42;19.50;;;10.53;;
2618;SDS011;1319;52.346;13.096;2023-11-21T05:55:07;19.97;;;11.40;;
2618;SDS011;1319;52.346;13.096;2023-11-21T05:57:33;19.53;;;11.00;;
2618;SDS011;1319;52.346;13.096;2023-11-21T06:00:01;21.30;;;11.50;;
2618;SDS011;1319;52.346;13.096;2023-11-21T06:02:34;19.17;;;10.47;;
2618;SDS011;1319;52.346;13.096;2023-11-21T06:05:00;20.63;;;11.50;;
2618;SDS011;1319;52.346;13.096;2023-11-21T06:07:25;20.73;;;10.87;;
2618;SDS011;1319;52.346;13.096;2023-11-21T06:09:50;20.40;;;10.90;;
2618;SDS011;1319;52.346;13.096;2023-11-21T06:12:16;20.50;;;11.10;;
2618;SDS011;1319;52.346;13.096;2023-11-21T06:14:41;21.23;;;11.47;;
2618;SDS011;1319;52.346;13.096;2023-11-21T06:17:06;20.90;;;11.20;;
2618;SDS011;1319;52.346;13.096;2023-11-21T06:19:31;19.33;;;10.97;;
2618;SDS011;1319;52.346;13.096;2023-11-21T06:21:57;21.67;;;11.33;;
2618;SDS011;1319;52.346;13.096;2023-11-21T06:24:22;18.90;;;10.70;;
2618;SDS011;1319;52.346;13.096;2023-11-21T06:26:47;26.87;;;12.00;;
2618;SDS011;1319;52.346;13.096;2023-11-21T06:29:13;19.67;;;10.97;;
2618;SDS011;1319;52.346;13.096;2023-11-21T06:31:39;18.83;;;10.10;;
2618;SDS011;1319;52.346;13.096;2023-11-21T06:34:06;20.53;;;11.43;;
2618;SDS011;1319;52.346;13.096;2023-11-21T06:36:31;21.87;;;11.00;;
2618;SDS011;1319;52.346;13.096;2023-11-21T06:38:56;19.23;;;10.97;;
2618;SDS011;1319;52.346;13.096;2023-11-21T06:41:21;21.87;;;11.30;;
2618;SDS011;1319;52.346;13.096;2023-11-21T06:43:47;25.63;;;11.70;;
2618;SDS011;1319;52.346;13.096;2023-11-21T06:46:13;23.40;;;10.87;;
2618;SDS011;1319;52.346;13.096;2023-11-21T06:48:44;22.10;;;11.17;;
2618;SDS011;1319;52.346;13.096;2023-11-21T06:51:10;20.83;;;11.00;;
2618;SDS011;1319;52.346;13.096;2023-11-21T06:53:36;20.80;;;11.17;;
2618;SDS011;1319;52.346;13.096;2023-11-21T06:56:01;21.73;;;10.67;;
2618;SDS011;1319;52.346;13.096;2023-11-21T06:58:27;21.40;;;11.07;;
2618;SDS011;1319;52.346;13.096;2023-11-21T07:00:52;25.20;;;10.33;;
2618;SDS011;1319;52.346;13.096;2023-11-21T07:03:17;20.37;;;10.90;;
2618;SDS011;1319;52.346;13.096;2023-11-21T07:05:44;21.97;;;11.27;;
2618;SDS011;1319;52.346;13.096;2023-11-21T07:08:09;22.40;;;10.57;;
2618;SDS011;1319;52.346;13.096;2023-11-21T07:10:35;18.90;;;10.37;;
2618;SDS011;1319;52.346;13.096;2023-11-21T07:13:01;23.27;;;10.53;;
2618;SDS011;1319;52.346;13.096;2023-11-21T07:15:27;24.67;;;10.57;;
2618;SDS011;1319;52.346;13.096;2023-11-21T07:17:52;18.77;;;10.00;;
2618;SDS011;1319;52.346;13.096;2023-11-21T07:20:19;17.13;;;8.67;;
2618;SDS011;1319;52.346;13.096;2023-11-21T07:22:44;14.10;;;8.40;;
2618;SDS011;1319;52.346;13.096;2023-11-21T07:25:10;15.70;;;9.00;;
2618;SDS011;1319;52.346;13.096;2023-11-21T07:27:35;16.40;;;8.50;;
2618;SDS011;1319;52.346;13.096;2023-11-21T07:30:01;14.17;;;8.47;;
2618;SDS011;1319;52.346;13.096;2023-11-21T07:32:29;13.83;;;8.20;;
2618;SDS011;1319;52.346;13.096;2023-11-21T07:34:54;13.40;;;7.87;;
2618;SDS011;1319;52.346;13.096;2023-11-21T07:37:22;13.97;;;8.17;;
2618;SDS011;1319;52.346;13.096;2023-11-21T07:39:47;12.37;;;7.40;;
2618;SDS011;1319;52.346;13.096;2023-11-21T07:42:12;13.20;;;6.83;;
2618;SDS011;1319;52.346;13.096;2023-11-21T07:44:38;12.20;;;6.40;;
2618;SDS011;1319;52.346;13.096;2023-11-21T07:47:03;11.03;;;6.27;;
2618;SDS011;1319;52.346;13.096;2023-11-21T07:49:29;12.87;;;6.20;;
2618;SDS011;1319;52.346;13.096;2023-11-21T07:51:55;9.40;;;6.20;;
2618;SDS011;1319;52.346;13.096;2023-11-21T07:54:20;8.33;;;5.50;;
2618;SDS011;1319;52.346;13.096;2023-11-21T07:56:46;10.90;;;6.40;;
2618;SDS011;1319;52.346;13.096;2023-11-21T07:59:11;12.67;;;6.13;;
2618;SDS011;1319;52.346;13.096;2023-11-21T08:01:37;11.17;;;6.03;;
2618;SDS011;1319;52.346;13.096;2023-11-21T08:04:02;6.93;;;5.33;;
2618;SDS011;1319;52.346;13.096;2023-11-21T08:06:29;8.90;;;6.20;;
2618;SDS011;1319;52.346;13.096;2023-11-21T08:08:54;8.03;;;5.40;;
2618;SDS011;1319;52.346;13.096;2023-11-21T08:11:19;8.33;;;5.57;;
2618;SDS011;1319;52.346;13.096;2023-11-21T08:13:46;9.80;;;6.07;;
2618;SDS011;1319;52.346;13.096;2023-11-21T08:16:11;9.77;;;6.10;;
2618;SDS011;1319;52.346;13.096;2023-11-21T08:18:37;8.60;;;5.90;;
2618;SDS011;1319;52.346;13.096;2023-11-21T08:21:02;9.63;;;5.97;;
2618;SDS011;1319;52.346;13.096;2023-11-21T08:23:29;10.67;;;5.67;;
2618;SDS011;1319;52.346;13.096;2023-11-21T08:25:54;7.77;;;5.23;;
2618;SDS011;1319;52.346;13.096;2023-11-21T08:28:20;10.83;;;5.60;;
2618;SDS011;1319;52.346;13.096;2023-11-21T08:30:50;8.60;;;5.70;;
2618;SDS011;1319;52.346;13.096;2023-11-21T08:33:16;12.13;;;5.93;;
2618;SDS011;1319;52.346;13.096;2023-11-21T08:35:41;8.13;;;5.50;;
2618;SDS011;1319;52.346;13.096;2023-11-21T08:38:06;8.23;;;5.33;;
2618;SDS011;1319;52.346;13.096;2023-11-21T08:40:32;11.27;;;6.10;;
2618;SDS011;1319;52.346;13.096;2023-11-21T08:42:57;10.10;;;5.83;;
2618;SDS011;1319;52.346;13.096;2023-11-21T08:45:24;11.53;;;5.87;;
2618;SDS011;1319;52.346;13.096;2023-11-21T08:47:50;8.83;;;5.67;;
2618;SDS011;1319;52.346;13.096;2023-11-21T08:50:15;8.23;;;5.40;;
2618;SDS011;1319;52.346;13.096;2023-11-21T08:52:41;8.70;;;5.33;;
2618;SDS011;1319;52.346;13.096;2023-11-21T08:55:07;6.80;;;4.87;;
2618;SDS011;1319;52.346;13.096;2023-11-21T08:57:36;8.13;;;5.00;;
2618;SDS011;1319;52.346;13.096;2023-11-21T09:00:04;6.27;;;4.30;;
2618;SDS011;1319;52.346;13.096;2023-11-21T09:02:36;7.10;;;4.80;;
2618;SDS011;1319;52.346;13.096;2023-11-21T09:05:04;9.60;;;5.33;;
2618;SDS011;1319;52.346;13.096;2023-11-21T09:07:29;8.90;;;5.40;;
2618;SDS011;1319;52.346;13.096;2023-11-21T09:09:55;7.43;;;5.10;;
2618;SDS011;1319;52.346;13.096;2023-11-21T09:12:20;8.23;;;5.13;;
2618;SDS011;1319;52.346;13.096;2023-11-21T09:14:46;7.37;;;5.03;;
2618;SDS011;1319;52.346;13.096;2023-11-21T09:17:11;9.23;;;5.43;;
2618;SDS011;1319;52.346;13.096;2023-11-21T09:19:37;8.90;;;5.83;;
2618;SDS011;1319;52.346;13.096;2023-11-21T09:22:02;7.70;;;5.00;;
2618;SDS011;1319;52.346;13.096;2023-11-21T09:24:28;8.77;;;5.60;;
2618;SDS011;1319;52.346;13.096;2023-11-21T09:26:53;7.87;;;5.33;;
2618;SDS011;1319;52.346;13.096;2023-11-21T09:29:18;8.00;;;5.67;;
2618;SDS011;1319;52.346;13.096;2023-11-21T09:31:43;7.30;;;5.40;;
2618;SDS011;1319;52.346;13.096;2023-11-21T09:34:09;11.23;;;5.80;;
2618;SDS011;1319;52.346;13.096;2023-11-21T09:36:35;8.10;;;5.77;;
2618;SDS011;1319;52.346;13.096;2023-11-21T09:39:02;7.20;;;5.50;;
2618;SDS011;1319;52.346;13.096;2023-11-21T09:41:35;9.23;;;6.23;;
2618;SDS011;1319;52.346;13.096;2023-11-21T09:44:02;8.27;;;5.70;;
2618;SDS011;1319;52.346;13.096;2023-11-21T09:46:27;8.13;;;5.50;;
2618;SDS011;1319;52.346;13.096;2023-11-21T09:48:53;8.73;;;5.50;;
2618;SDS011;1319;52.346;13.096;2023-11-21T09:51:21;9.07;;;5.90;;
2618;SDS011;1319;52.346;13.096;2023-11-21T09:53:49;9.33;;;5.80;;
2618;SDS011;1319;52.346;13.096;2023-11-21T09:56:17;6.93;;;5.23;;
2618;SDS011;1319;52.346;13.096;2023-11-21T09:58:50;9.97;;;6.13;;
2618;SDS011;1319;52.346;13.096;2023-11-21T10:01:15;8.13;;;5.80;;
2618;SDS011;1319;52.346;13.096;2023-11-21T10:03:41;10.57;;;5.70;;
2618;SDS011;1319;52.346;13.096;2023-11-21T10:06:07;8.40;;;5.53;;
2618;SDS011;1319;52.346;13.096;2023-11-21T10:08:33;6.60;;;4.90;;
2618;SDS011;1319;52.346;13.096;2023-11-21T10:10:58;9.37;;;4.63;;
2618;SDS011;1319;52.346;13.096;2023-11-21T10:13:24;8.50;;;5.57;;
2618;SDS011;1319;52.346;13.096;2023-11-21T10:15:51;8.17;;;5.50;;
2618;SDS011;1319;52.346;13.096;2023-11-21T10:18:17;8.20;;;5.27;;
2618;SDS011;1319;52.346;13.096;2023-11-21T10:20:44;8.37;;;4.80;;
2618;SDS011;1319;52.346;13.096;2023-11-21T10:23:11;7.60;;;4.63;;
2618;SDS011;1319;52.346;13.096;2023-11-21T10:25:38;10.07;;;4.37;;
2618;SDS011;1319;52.346;13.096;2023-11-21T10:28:03;6.33;;;4.37;;
2618;SDS011;1319;52.346;13.096;2023-11-21T10:30:36;6.00;;;4.40;;
2618;SDS011;1319;52.346;13.096;2023-11-21T10:33:02;7.20;;;3.77;;
2618;SDS011;1319;52.346;13.096;2023-11-21T10:38:05;5.97;;;3.90;;
2618;SDS011;1319;52.346;13.096;2023-11-21T10:40:30;7.47;;;4.03;;
2618;SDS011;1319;52.346;13.096;2023-11-21T10:42:59;6.33;;;4.37;;
2618;SDS011;1319;52.346;13.096;2023-11-21T10:45:30;7.73;;;4.07;;
2618;SDS011;1319;52.346;13.096;2023-11-21T10:47:56;7.07;;;3.90;;
2618;SDS011;1319;52.346;13.096;2023-11-21T10:50:21;6.63;;;4.53;;
2618;SDS011;1319;52.346;13.096;2023-11-21T10:52:46;6.23;;;4.10;;
2618;SDS011;1319;52.346;13.096;2023-11-21T10:55:19;6.70;;;4.23;;
2618;SDS011;1319;52.346;13.096;2023-11-21T10:57:50;4.23;;;3.53;;
2618;SDS011;1319;52.346;13.096;2023-11-21T11:00:17;6.03;;;4.07;;
2618;SDS011;1319;52.346;13.096;2023-11-21T11:02:45;5.90;;;4.07;;
2618;SDS011;1319;52.346;13.096;2023-11-21T11:05:12;7.43;;;3.93;;
2618;SDS011;1319;52.346;13.096;2023-11-21T11:07:39;5.47;;;4.10;;
2618;SDS011;1319;52.346;13.096;2023-11-21T11:10:05;8.50;;;5.20;;
2618;SDS011;1319;52.346;13.096;2023-11-21T11:12:33;6.77;;;4.13;;
2618;SDS011;1319;52.346;13.096;2023-11-21T11:14:58;6.20;;;4.20;;
2618;SDS011;1319;52.346;13.096;2023-11-21T11:17:25;5.67;;;3.70;;
2618;SDS011;1319;52.346;13.096;2023-11-21T11:19:50;8.67;;;4.50;;
2618;SDS011;1319;52.346;13.096;2023-11-21T11:25:03;4.27;;;3.87;;
2618;SDS011;1319;52.346;13.096;2023-11-21T11:35:17;7.33;;;5.07;;
2618;SDS011;1319;52.346;13.096;2023-11-21T11:37:44;5.87;;;4.30;;
2618;SDS011;1319;52.346;13.096;2023-11-21T11:40:12;6.43;;;4.67;;
2618;SDS011;1319;52.346;13.096;2023-11-21T11:42:38;6.67;;;4.07;;
2618;SDS011;1319;52.346;13.096;2023-11-21T11:45:17;5.03;;;4.20;;
2618;SDS011;1319;52.346;13.096;2023-11-21T11:47:42;7.00;;;4.47;;
2618;SDS011;1319;52.346;13.096;2023-11-21T11:52:39;7.03;;;4.63;;
2618;SDS011;1319;52.346;13.096;2023-11-21T11:55:05;8.47;;;5.23;;
2618;SDS011;1319;52.346;13.096;2023-11-21T11:57:31;6.13;;;4.70;;
2618;SDS011;1319;52.346;13.096;2023-11-21T12:02:46;7.23;;;4.70;;
2618;SDS011;1319;52.346;13.096;2023-11-21T12:05:12;8.67;;;4.87;;
2618;SDS011;1319;52.346;13.096;2023-11-21T12:07:44;7.30;;;4.60;;
2618;SDS011;1319;52.346;13.096;2023-11-21T12:10:11;10.00;;;4.87;;
2618;SDS011;1319;52.346;13.096;2023-11-21T12:12:37;6.43;;;4.20;;
2618;SDS011;1319;52.346;13.096;2023-11-21T12:15:04;7.33;;;4.40;;
2618;SDS011;1319;52.346;13.096;2023-11-21T12:17:30;9.17;;;4.73;;
2618;SDS011;1319;52.346;13.096;2023-11-21T12:20:01;7.67;;;4.30;;
2618;SDS011;1319;52.346;13.096;2023-11-21T12:22:27;6.70;;;4.90;;
2618;SDS011;1319;52.346;13.096;2023-11-21T12:24:53;10.73;;;4.93;;
2618;SDS011;1319;52.346;13.096;2023-11-21T12:27:20;7.53;;;4.37;;
2618;SDS011;1319;52.346;13.096;2023-11-21T12:29:45;7.87;;;4.63;;
2618;SDS011;1319;52.346;13.096;2023-11-21T12:32:11;9.37;;;4.93;;
2618;SDS011;1319;52.346;13.096;2023-11-21T12:34:36;8.27;;;4.50;;
2618;SDS011;1319;52.346;13.096;2023-11-21T12:37:03;8.47;;;4.67;;
2618;SDS011;1319;52.346;13.096;2023-11-21T12:39:28;8.73;;;4.50;;
2618;SDS011;1319;52.346;13.096;2023-11-21T12:41:54;8.13;;;4.77;;
2618;SDS011;1319;52.346;13.096;2023-11-21T12:44:19;7.60;;;4.93;;
2618;SDS011;1319;52.346;13.096;2023-11-21T12:46:44;9.10;;;5.00;;
2618;SDS011;1319;52.346;13.096;2023-11-21T12:49:11;9.30;;;4.93;;
2618;SDS011;1319;52.346;13.096;2023-11-21T12:51:42;9.20;;;5.40;;
2618;SDS011;1319;52.346;13.096;2023-11-21T12:54:07;11.37;;;4.97;;
2618;SDS011;1319;52.346;13.096;2023-11-21T12:56:38;7.43;;;5.10;;
2618;SDS011;1319;52.346;13.096;2023-11-21T12:59:03;7.80;;;5.00;;
2618;SDS011;1319;52.346;13.096;2023-11-21T13:01:29;7.60;;;5.20;;
2618;SDS011;1319;52.346;13.096;2023-11-21T13:03:57;10.33;;;5.30;;
2618;SDS011;1319;52.346;13.096;2023-11-21T13:06:22;7.67;;;4.97;;
2618;SDS011;1319;52.346;13.096;2023-11-21T13:08:50;11.67;;;5.30;;
2618;SDS011;1319;52.346;13.096;2023-11-21T13:11:15;9.47;;;5.23;;
2618;SDS011;1319;52.346;13.096;2023-11-21T13:13:43;12.00;;;5.53;;
2618;SDS011;1319;52.346;13.096;2023-11-21T13:16:11;11.57;;;5.77;;
2618;SDS011;1319;52.346;13.096;2023-11-21T13:18:36;10.13;;;5.90;;
2618;SDS011;1319;52.346;13.096;2023-11-21T13:21:05;10.93;;;4.80;;
2618;SDS011;1319;52.346;13.096;2023-11-21T13:23:35;14.13;;;4.50;;
2618;SDS011;1319;52.346;13.096;2023-11-21T13:26:03;11.80;;;6.90;;
2618;SDS011;1319;52.346;13.096;2023-11-21T13:28:32;7.10;;;4.97;;
2618;SDS011;1319;52.346;13.096;2023-11-21T13:30:58;7.03;;;4.60;;
2618;SDS011;1319;52.346;13.096;2023-11-21T13:33:28;10.43;;;5.30;;
2618;SDS011;1319;52.346;13.096;2023-11-21T13:35:53;10.00;;;5.10;;
2618;SDS011;1319;52.346;13.096;2023-11-21T13:38:21;9.40;;;5.17;;
2618;SDS011;1319;52.346;13.096;2023-11-21T13:40:52;9.07;;;5.20;;
2618;SDS011;1319;52.346;13.096;2023-11-21T13:43:22;8.30;;;4.80;;
2618;SDS011;1319;52.346;13.096;2023-11-21T13:45:49;9.13;;;4.53;;
2618;SDS011;1319;52.346;13.096;2023-11-21T13:48:20;8.70;;;5.33;;
2618;SDS011;1319;52.346;13.096;2023-11-21T13:50:53;12.83;;;6.40;;
2618;SDS011;1319;52.346;13.096;2023-11-21T13:53:24;10.83;;;6.03;;
2618;SDS011;1319;52.346;13.096;2023-11-21T13:55:58;12.07;;;6.47;;
2618;SDS011;1319;52.346;13.096;2023-11-21T13:58:24;13.70;;;6.47;;
2618;SDS011;1319;52.346;13.096;2023-11-21T14:01:08;13.87;;;7.03;;
2618;SDS011;1319;52.346;13.096;2023-11-21T14:04:01;17.00;;;6.83;;
2618;SDS011;1319;52.346;13.096;2023-11-21T14:06:47;14.30;;;7.20;;
2618;SDS011;1319;52.346;13.096;2023-11-21T14:09:31;16.00;;;7.83;;
2618;SDS011;1319;52.346;13.096;2023-11-21T14:12:08;11.17;;;6.73;;
2618;SDS011;1319;52.346;13.096;2023-11-21T14:14:35;13.77;;;7.10;;
2618;SDS011;1319;52.346;13.096;2023-11-21T14:17:00;16.07;;;8.33;;
2618;SDS011;1319;52.346;13.096;2023-11-21T14:19:29;11.47;;;7.50;;
2618;SDS011;1319;52.346;13.096;2023-11-21T14:21:57;13.37;;;6.77;;
2618;SDS011;1319;52.346;13.096;2023-11-21T14:24:23;11.87;;;7.13;;
2618;SDS011;1319;52.346;13.096;2023-11-21T14:26:49;15.80;;;8.73;;
2618;SDS011;1319;52.346;13.096;2023-11-21T14:29:15;14.70;;;8.07;;
2618;SDS011;1319;52.346;13.096;2023-11-21T14:31:44;15.87;;;8.20;;
2618;SDS011;1319;52.346;13.096;2023-11-21T14:34:10;18.63;;;9.23;;
2618;SDS011;1319;52.346;13.096;2023-11-21T14:36:37;16.37;;;8.93;;
2618;SDS011;1319;52.346;13.096;2023-11-21T14:39:04;17.97;;;9.20;;
2618;SDS011;1319;52.346;13.096;2023-11-21T14:41:34;17.77;;;9.63;;
2618;SDS011;1319;52.346;13.096;2023-11-21T14:44:01;18.83;;;9.63;;
2618;SDS011;1319;52.346;13.096;2023-11-21T14:46:29;16.20;;;9.27;;
2618;SDS011;1319;52.346;13.096;2023-11-21T14:48:54;19.03;;;9.67;;
2618;SDS011;1319;52.346;13.096;2023-11-21T14:51:42;17.20;;;9.67;;
2618;SDS011;1319;52.346;13.096;2023-11-21T14:54:29;20.37;;;10.40;;
2618;SDS011;1319;52.346;13.096;2023-11-21T14:57:11;21.30;;;10.63;;
2618;SDS011;1319;52.346;13.096;2023-11-21T14:59:43;20.80;;;10.20;;
2618;SDS011;1319;52.346;13.096;2023-11-21T15:02:08;20.47;;;10.80;;